• Join FlightAware (Why Join?)
  • Login
  • US Flag 
09:25PM EDT


 

Airport Tracker/Info


-or-


 

Live Flight TrackerFlight Track Log ✈ JBU1329 ✈ 29-May-2013 ✈ KBOS - KBWI

Flight Track Log - Related Links

Times and Time Zones

All times are in EDT time to prevent confusion due to time zone crossing. See the JBU1329 flight status page for this flight to view local times or setup timezone preferences in your user account.

Time Position Orientation Groundspeed Altitude Reporting Facility
EDT Latitude Longitude Course Direction KTS MPH feet Rate Location/Type
09:21AM 42.3500 -71.0167 262° West 150 173 700  Level KA90
09:22AM 42.3167 -70.9833 144° Southeast 218 251 2,700 2,640 Climbing KA90
09:23AM 42.3167 -70.9000 90° East 250 288 5,700 2,760 Climbing KA90
09:24AM 42.2805 -70.7459 228° Southwest  Level FlightAware Approximate
09:24AM 42.3236 -70.7750 86° East 298 343 9,400  Level Boston Center
09:25AM 42.2180 -70.8526 240° Southwest  Level FlightAware Approximate
09:25AM 42.2394 -70.7267 157° South 215 247 12,700  Level Boston Center
09:26AM 42.1824 -70.9765 262° West  Level FlightAware Approximate
09:26AM 42.1822 -70.7983 223° Southwest 189 217 15,100  Level Boston Center
09:27AM 42.1669 -70.9078 259° West 212 244 17,000 2,100 Climbing Boston Center
09:28AM 42.1503 -71.0539 261° West 316 364 19,400 2,400 Climbing Boston Center
09:29AM 42.1100 -71.1836 247° West 344 396 21,800 2,100 Climbing Boston Center
09:30AM 42.0675 -71.3158 247° West 374 430 23,600 1,620 Climbing Boston Center
09:31AM 42.0311 -71.4283 247° West 394 453 25,100 1,920 Climbing Boston Center
09:32AM 41.9700 -71.5942 244° Southwest 411 473 27,500 1,800 Climbing Boston Center
09:33AM 41.9208 -71.7342 245° Southwest 417 480 28,800 1,440 Climbing Boston Center
09:34AM 41.8717 -71.8797 246° West 423 487 30,400 1,560 Climbing Boston Center
09:35AM 41.8264 -72.0222 247° West 423 487 32,000 780 Climbing Boston Center
09:36AM 41.7769 -72.1672 245° Southwest 423 487 32,000  Level Boston Center
09:37AM 41.7231 -72.3150 244° Southwest 423 487 32,000  Level Boston Center
09:38AM 41.6750 -72.4622 246° West 428 493 32,000  Level Boston Center
09:39AM 41.6250 -72.6039 245° Southwest 428 493 32,000  Level Boston Center
09:40AM 41.5725 -72.7508 245° Southwest 428 493 32,000  Level Boston Center
09:41AM 41.5264 -72.8836 245° Southwest 428 493 32,000  Level Boston Center
09:42AM 41.4733 -73.0442 246° West 439 505 32,000  Level Boston Center
09:43AM 41.4269 -73.1736 244° Southwest 439 505 32,000  Level Boston Center
09:46AM 41.3047 -73.5164 245° Southwest 430 495 32,000  Level New York Center
09:47AM 41.2478 -73.6356 238° Southwest 430 495 32,000  Level New York Center
09:48AM 41.1672 -73.7728 232° Southwest 438 504 32,000  Level New York Center
09:49AM 41.0997 -73.8853 231° Southwest 438 504 32,000  Level New York Center
09:50AM 41.0211 -74.0219 233° Southwest 438 504 32,000 -60 Level New York Center
09:51AM 40.9533 -74.1339 231° Southwest 432 497 31,900 -480 Descending New York Center
09:52AM 40.8769 -74.2564 231° Southwest 432 497 31,100 -960 Descending New York Center
09:53AM 40.8022 -74.3786 231° Southwest 432 497 30,100 -1,020 Descending New York Center
09:54AM 40.7253 -74.5114 233° Southwest 437 503 29,100 -1,020 Descending New York Center
09:55AM 40.6483 -74.6386 231° Southwest 443 510 28,100 -660 Descending New York Center
09:56AM 40.5811 -74.7769 237° Southwest 449 517 27,900 -720 Descending New York Center
09:57AM 40.5569 -74.9367 259° West 443 510 26,700 -1,320 Descending New York Center
09:58AM 40.5306 -75.0906 257° West 438 504 25,300 -1,440 Descending New York Center
09:59AM 40.4736 -75.2208 240° Southwest 428 493 23,900 -1,560 Descending New York Center
10:00AM 40.3817 -75.3375 224° Southwest 418 481 22,200 -1,620 Descending New York Center
10:01AM 40.2825 -75.4153 211° Southwest 407 468 20,800 -1,440 Descending New York Center
10:02AM 40.1842 -75.4819 207° Southwest 407 468 19,400 -1,320 Descending New York Center
10:03AM 40.0853 -75.5542 209° Southwest 412 474 18,200 -720 Descending New York Center
10:04AM 39.9908 -75.6208 208° Southwest 400 460 18,000 -120 Descending New York Center
10:05AM 39.9022 -75.6986 214° Southwest 400 460 18,000 -300 Level New York Center
10:06AM 39.8433 -75.8106 236° Southwest 385 443 17,400 -1,440 Descending New York Center
10:08AM 39.7333 -76.0167 235° Southwest 353 406 13,900 -1,800 Descending Potomac TRACON
10:09AM 39.6833 -76.1333 241° Southwest 347 399 12,000 -1,200 Descending Potomac TRACON
10:10AM 39.6333 -76.2167 232° Southwest 288 331 11,500 -1,080 Descending Potomac TRACON
10:11AM 39.5667 -76.2833 218° Southwest 278 320 9,900 -1,680 Descending Potomac TRACON
10:12AM 39.5000 -76.3333 210° Southwest 273 314 8,200 -1,800 Descending Potomac TRACON
10:13AM 39.4500 -76.4000 226° Southwest 274 315 6,400 -1,740 Descending Potomac TRACON
10:14AM 39.3667 -76.4167 189° South 281 323 4,700 -1,260 Descending Potomac TRACON
10:15AM 39.3000 -76.4333 191° South 277 319 3,900 -660 Descending Potomac TRACON
10:16AM 39.2167 -76.4500 189° South 232 267 3,400 -720 Descending Potomac TRACON
10:17AM 39.1667 -76.5000 218° Southwest 209 241 2,400 -900 Descending Potomac TRACON
10:18AM 39.1333 -76.5333 218° Southwest 187 215 1,800 -720 Descending Potomac TRACON